Airfield :
LOGIN :

Register | Disclaimer

   EN    FR    IT 

 










Legend :    VFR   Marginal VFR   IFR   Intensive IFR   Very Intensive IFR
Visi :
Ceiling :
>= 8 km
>= 3000ft
5 to 8 km
1000 to 3000 ft
1500m to 5 km
500 to 1000 ft
800 to 1500m
200 to 500 ft
< 800m
< 200 ft
Symbols :   Thunderstorms  Fog  Heavy snow  Heavy precipitations  Wind > 20 kt
SIGMETs :     Misc.  Thunderstorms  Icing  Turbulence  Mountain Waves  Volcanic Ashes






- Airport Elevation : 1325 ft
- IATA code : EBU


LFMH - St-Etienne Boutheon

CURRENT METAR :
  • 250500Z AUTO 20006KT 170V240 CAVOK 09/05 Q1012 NOSIG

EXPIRED METARs :
  • 250430Z AUTO VRB02KT CAVOK 09/05 Q1012 NOSIG
  • 250400Z AUTO 16010KT CAVOK 08/06 Q1011 NOSIG
  • 250330Z AUTO 16007KT CAVOK 09/05 Q1012 NOSIG
  • 250300Z AUTO 19006KT CAVOK 10/06 Q1012 NOSIG
  • 250230Z AUTO 19005KT 160V220 CAVOK 10/06 Q1012 NOSIG

TAF TAF LFMH
Valid from the 25 at 00:00 until the 26 at 00:00 UTC


242300Z 2500/2524 16008KT CAVOK
TEMPO 2510/2517 18015G30KT
BECMG 2518/2520 -RA BKN040
TEMPO 2518/2522 VRB10KT
PROB40
TEMPO 2519/2521 3000 RA BKN014 FEW070CB
ATIS : +33 4 77 36 17 51



MET'MAP, your aeronautical weather chart ! - Copyright ORBIFLY December 2007 - Disclaimer

ORBIFLY MET'MAP TEAM :

Programming & Development : Alexandra Zaïnal
Concept & original design : Baudouin d'Aumeries
Assistance for programming : Marc-Olivier Méhu
Technical & hardware support : Manuel Goepfert

Contact : metmap@orbifly.com




SOURCES & CREDITS :

   NOAA